Hovedside
METAR-TAF:

METAR-TAF

Lufthavner :

Rivera lufthavn

Rivera, Uruguay

breddegrad: 30-53S, lengdegrad: 055-32W, høyde over havet: 205 m

METAR: fraværende

Tid: 14:50 (17:50 UTC)

Varsel

Denne rapporten ble laget for 20 minutter siden, klokken 17:30 UTC
Varsel gyldig fra 15. klokken 18 UTC til 16. klokken 18 UTC
Vind 8 kt fra Sørøst
Sikt 10 km eller mer
Spredte skyer i en høyde av 1500 ft
Brutte skyer i en høyde av 7000 ft
Midlertidig
fra 16. klokken 02 UTC til 16. klokken 11 UTC
Sikt: 2000 m
Brutte skyer i en høyde av 500 ft
dis,

TAF: SURV 151730Z 1518/1618 14008KT 9999 SCT015 BKN070 TX17/1618Z TN04/1611Z TEMPO 1602/1611 2000 BR BKN005

Værobservasjoner og værvarsel for over 4000 flyplasser (METAR- og TAF-rapporter).

Tilgjengelige stasjoner er representert av de røde og gule prikkene på kartet.

Hold musepekeren over prikken for å se navnet på stasjonen.

Klikk så for å se værobservasjoner og -varsler.

For å forandre kartet kan du klikke på den grønne knappen med svart kryss for å zoome inn, på den grønne knappen med strek for å zoome ut, eller på de grønne pilene for å se tilstøtende kart.


METAR-TAF: